Time;durP1;ratioP1;P1;durP2;ratioP2;P2;SDS_P1;SDS_P2;PMS_P1;PMS_P2;Temp;Humidity;BMP_temperature;BMP_pressure;BME280_temperature;BME280_humidity;BME280_pressure;Samples;Min_cycle;Max_cycle;Signal;HPM_P1;HPM_P2
2021/03/04 00:00:13;;;;;;;31.00;26.90;;;;;;;;;;5111521;28;20465;-16
2021/03/04 00:02:43;;;;;;;30.60;26.03;;;;;;;;;;5095311;28;20492;-14
2021/03/04 00:05:17;;;;;;;30.80;27.60;;;;;;;;;;5108117;28;20449;-14
2021/03/04 00:07:46;;;;;;;31.07;27.73;;;;;;;;;;5119751;28;20439;-13
2021/03/04 00:10:16;;;;;;;38.97;31.60;;;;;;;;;;5119839;28;20446;-14
2021/03/04 00:12:44;;;;;;;38.70;29.30;;;;;;;;;;5119843;28;20442;-14
2021/03/04 00:15:13;;;;;;;42.20;32.37;;;;;;;;;;5119691;28;20434;-14
2021/03/04 00:17:41;;;;;;;34.53;30.07;;;;;;;;;;5118432;28;20543;-13
2021/03/04 00:20:11;;;;;;;35.60;28.30;;;;;;;;;;5118332;28;20565;-13
2021/03/04 00:22:39;;;;;;;32.43;27.93;;;;;;;;;;5116452;28;20526;-13
2021/03/04 00:25:09;;;;;;;30.17;26.93;;;;;;;;;;5118194;28;20471;-14
2021/03/04 00:27:38;;;;;;;30.37;25.60;;;;;;;;;;5097983;28;20442;-14
2021/03/04 00:30:07;;;;;;;27.50;24.67;;;;;;;;;;5098312;28;20440;-14
2021/03/04 00:32:35;;;;;;;28.13;25.13;;;;;;;;;;5097941;28;20451;-14
2021/03/04 00:35:04;;;;;;;30.00;26.90;;;;;;;;;;5097871;28;20435;-14
2021/03/04 00:37:38;;;;;;;29.73;25.23;;;;;;;;;;5098136;28;20496;-13
2021/03/04 00:40:07;;;;;;;30.37;27.37;;;;;;;;;;5098524;28;20740;-14
2021/03/04 00:42:35;;;;;;;33.27;29.37;;;;;;;;;;5106534;28;20546;-12
2021/03/04 00:45:04;;;;;;;32.93;29.47;;;;;;;;;;5119028;28;20526;-13
2021/03/04 00:47:34;;;;;;;31.17;27.70;;;;;;;;;;5118762;28;20465;-14
2021/03/04 00:50:02;;;;;;;37.60;28.37;;;;;;;;;;5094437;28;682777;-13
2021/03/04 00:52:29;;;;;;;33.63;29.00;;;;;;;;;;5118360;28;20865;-12
2021/03/04 00:54:58;;;;;;;30.00;26.90;;;;;;;;;;5118867;28;20447;-13
2021/03/04 00:57:26;;;;;;;28.17;25.27;;;;;;;;;;5119512;28;20722;-13
2021/03/04 00:59:55;;;;;;;32.33;26.73;;;;;;;;;;5120279;28;20506;-14
2021/03/04 01:02:24;;;;;;;30.70;26.40;;;;;;;;;;5119731;28;20526;-14
2021/03/04 01:04:51;;;;;;;29.33;26.30;;;;;;;;;;5120786;28;20995;-14
2021/03/04 01:07:19;;;;;;;29.60;26.03;;;;;;;;;;5085750;28;20459;-14
2021/03/04 01:09:47;;;;;;;30.27;27.00;;;;;;;;;;5120860;28;20487;-14
2021/03/04 01:12:15;;;;;;;29.80;26.77;;;;;;;;;;5120811;28;20470;-14
2021/03/04 01:14:43;;;;;;;35.37;26.33;;;;;;;;;;5119920;28;20443;-14
2021/03/04 01:17:14;;;;;;;30.33;27.10;;;;;;;;;;5117524;28;20456;-15
2021/03/04 01:19:41;;;;;;;32.73;28.97;;;;;;;;;;5101585;28;20459;-14
2021/03/04 01:22:10;;;;;;;31.53;27.10;;;;;;;;;;5099405;28;20475;-14
2021/03/04 01:24:37;;;;;;;30.70;26.00;;;;;;;;;;5082403;28;20463;-13
2021/03/04 01:27:06;;;;;;;32.23;25.90;;;;;;;;;;5100300;28;20567;-13
2021/03/04 01:29:35;;;;;;;30.07;27.07;;;;;;;;;;5100515;28;20462;-14
2021/03/04 01:32:04;;;;;;;31.07;26.73;;;;;;;;;;5101906;28;20462;-15
2021/03/04 01:34:33;;;;;;;30.00;26.83;;;;;;;;;;5099894;28;20428;-13
2021/03/04 01:37:00;;;;;;;30.33;27.03;;;;;;;;;;5098499;28;20436;-14
2021/03/04 01:39:29;;;;;;;31.43;26.63;;;;;;;;;;5115451;28;20502;-14
2021/03/04 01:41:57;;;;;;;29.27;26.07;;;;;;;;;;5120956;28;20767;-13
2021/03/04 01:44:27;;;;;;;31.37;27.73;;;;;;;;;;5121117;28;20435;-14
2021/03/04 01:46:54;;;;;;;34.23;27.67;;;;;;;;;;5120230;28;20435;-14
2021/03/04 01:49:28;;;;;;;36.20;29.70;;;;;;;;;;5119756;28;20474;-14
2021/03/04 01:52:01;;;;;;;34.57;28.20;;;;;;;;;;5117432;28;20498;-14
2021/03/04 01:54:30;;;;;;;29.10;26.20;;;;;;;;;;5120794;28;20442;-13
2021/03/04 01:56:58;;;;;;;30.30;25.20;;;;;;;;;;5119591;28;20423;-15
2021/03/04 01:59:29;;;;;;;29.50;25.87;;;;;;;;;;5120706;28;20432;-14
2021/03/04 02:01:57;;;;;;;28.77;24.00;;;;;;;;;;5102639;28;20474;-14
2021/03/04 02:04:26;;;;;;;33.97;28.60;;;;;;;;;;5120932;28;20509;-14
2021/03/04 02:06:58;;;;;;;32.93;28.90;;;;;;;;;;5121360;28;21012;-13
2021/03/04 02:09:31;;;;;;;40.40;33.13;;;;;;;;;;5120649;28;20439;-13
2021/03/04 02:12:00;;;;;;;43.10;33.80;;;;;;;;;;5118691;28;20954;-13
2021/03/04 02:14:29;;;;;;;41.90;32.00;;;;;;;;;;5120774;28;20446;-14
2021/03/04 02:17:00;;;;;;;42.23;30.73;;;;;;;;;;5118732;28;20559;-14
2021/03/04 02:19:35;;;;;;;40.73;32.13;;;;;;;;;;5100589;28;20490;-15
2021/03/04 02:22:07;;;;;;;41.13;30.57;;;;;;;;;;5100058;28;20814;-13
2021/03/04 02:24:44;;;;;;;38.07;31.30;;;;;;;;;;5099603;28;20484;-14
2021/03/04 02:27:15;;;;;;;41.43;29.90;;;;;;;;;;5100641;28;20727;-15
2021/03/04 02:29:45;;;;;;;43.23;31.20;;;;;;;;;;5099332;28;20467;-14
2021/03/04 02:32:17;;;;;;;33.13;29.10;;;;;;;;;;5099008;28;20448;-12
2021/03/04 02:34:47;;;;;;;35.47;31.73;;;;;;;;;;5082953;28;20803;-13
2021/03/04 02:37:18;;;;;;;30.67;26.07;;;;;;;;;;5100992;28;20459;-14
2021/03/04 02:39:48;;;;;;;29.60;26.57;;;;;;;;;;5102002;28;20906;-14
2021/03/04 02:42:21;;;;;;;28.23;25.40;;;;;;;;;;5084364;28;20467;-14
2021/03/04 02:44:53;;;;;;;31.00;27.33;;;;;;;;;;5101887;28;20428;-14
2021/03/04 02:47:22;;;;;;;29.17;26.20;;;;;;;;;;5098862;28;20504;-14
2021/03/04 02:49:51;;;;;;;39.00;29.20;;;;;;;;;;5099785;28;20440;-14
2021/03/04 02:52:19;;;;;;;30.33;27.40;;;;;;;;;;5116470;28;20482;-15
2021/03/04 02:54:47;;;;;;;30.03;26.93;;;;;;;;;;5120262;28;20534;-12
2021/03/04 02:57:16;;;;;;;32.30;27.63;;;;;;;;;;5101622;28;20442;-14
2021/03/04 02:59:50;;;;;;;31.30;27.00;;;;;;;;;;5120308;28;20434;-13
2021/03/04 03:02:19;;;;;;;29.43;26.23;;;;;;;;;;5120994;28;20494;-13
2021/03/04 03:04:48;;;;;;;29.30;25.70;;;;;;;;;;5119878;28;20443;-14
2021/03/04 03:07:16;;;;;;;33.20;27.90;;;;;;;;;;5108727;28;20505;-14
2021/03/04 03:09:46;;;;;;;32.60;26.67;;;;;;;;;;5099221;28;20447;-13
2021/03/04 03:12:14;;;;;;;33.63;27.90;;;;;;;;;;5081517;28;20435;-13
2021/03/04 03:14:46;;;;;;;30.30;26.17;;;;;;;;;;5100090;28;20436;-13
2021/03/04 03:17:14;;;;;;;29.00;26.00;;;;;;;;;;5098647;28;20499;-14
2021/03/04 03:19:42;;;;;;;29.20;26.30;;;;;;;;;;5100103;28;20447;-13
2021/03/04 03:22:11;;;;;;;28.20;24.43;;;;;;;;;;5099075;28;20468;-14
2021/03/04 03:24:39;;;;;;;29.40;25.60;;;;;;;;;;5098627;28;20463;-14
2021/03/04 03:27:09;;;;;;;29.20;25.93;;;;;;;;;;5097324;28;20447;-12
2021/03/04 03:29:37;;;;;;;31.07;28.03;;;;;;;;;;5098764;28;20432;-13
2021/03/04 03:32:05;;;;;;;29.07;25.93;;;;;;;;;;5099467;28;20475;-13
2021/03/04 03:34:34;;;;;;;28.10;25.13;;;;;;;;;;5099422;28;20435;-14
2021/03/04 03:37:01;;;;;;;32.37;27.50;;;;;;;;;;5099393;28;20432;-14
2021/03/04 03:39:29;;;;;;;32.67;26.63;;;;;;;;;;5098280;28;20423;-15
2021/03/04 03:41:57;;;;;;;30.90;27.90;;;;;;;;;;5119525;28;20665;-15
2021/03/04 03:44:26;;;;;;;30.97;27.67;;;;;;;;;;5122487;28;20850;-14
2021/03/04 03:46:55;;;;;;;30.90;27.27;;;;;;;;;;5123197;28;20909;-13
2021/03/04 03:49:25;;;;;;;32.17;28.57;;;;;;;;;;5104777;28;20533;-13
2021/03/04 03:51:55;;;;;;;29.77;26.97;;;;;;;;;;5123186;28;20439;-12
2021/03/04 03:54:22;;;;;;;32.70;26.20;;;;;;;;;;5121249;28;20435;-13
2021/03/04 03:56:50;;;;;;;30.37;27.00;;;;;;;;;;5122242;28;20454;-13
2021/03/04 03:59:23;;;;;;;29.70;26.47;;;;;;;;;;5123148;28;20427;-14
2021/03/04 04:01:51;;;;;;;28.03;25.30;;;;;;;;;;5122932;28;20494;-14
2021/03/04 04:04:20;;;;;;;28.03;25.23;;;;;;;;;;5123228;28;20488;-14
2021/03/04 04:06:49;;;;;;;29.23;26.30;;;;;;;;;;5114508;28;20494;-14
2021/03/04 04:09:18;;;;;;;28.73;25.80;;;;;;;;;;5085119;28;20494;-13
2021/03/04 04:11:45;;;;;;;28.73;26.13;;;;;;;;;;5102296;28;20523;-14
2021/03/04 04:14:14;;;;;;;29.20;26.00;;;;;;;;;;5103901;28;20485;-12
2021/03/04 04:16:42;;;;;;;29.43;26.27;;;;;;;;;;5090832;28;20439;-13
2021/03/04 04:19:12;;;;;;;30.63;27.50;;;;;;;;;;5104391;28;20474;-13
2021/03/04 04:21:42;;;;;;;31.40;26.90;;;;;;;;;;5115593;28;20505;-13
2021/03/04 04:24:10;;;;;;;31.37;27.93;;;;;;;;;;5123464;28;20434;-13
2021/03/04 04:26:40;;;;;;;30.00;27.10;;;;;;;;;;5122359;28;20453;-13
2021/03/04 04:29:08;;;;;;;29.43;25.83;;;;;;;;;;5123759;28;20835;-13
2021/03/04 04:31:37;;;;;;;27.87;24.93;;;;;;;;;;5122319;28;20439;-13
2021/03/04 04:34:04;;;;;;;29.87;26.73;;;;;;;;;;5122990;28;20780;-14
2021/03/04 04:36:31;;;;;;;28.20;25.50;;;;;;;;;;5122271;28;20490;-14
2021/03/04 04:38:59;;;;;;;30.93;27.10;;;;;;;;;;5121960;28;20441;-15
2021/03/04 04:41:27;;;;;;;29.13;25.87;;;;;;;;;;5102770;28;20465;-14
2021/03/04 04:43:55;;;;;;;27.30;24.60;;;;;;;;;;5120780;28;20534;-14
2021/03/04 04:46:22;;;;;;;27.83;25.10;;;;;;;;;;5119095;28;20498;-14
2021/03/04 04:48:50;;;;;;;28.60;25.80;;;;;;;;;;5122212;28;20457;-14
2021/03/04 04:51:18;;;;;;;27.63;24.73;;;;;;;;;;5122369;28;20473;-15
2021/03/04 04:53:48;;;;;;;29.00;25.90;;;;;;;;;;5122067;28;20431;-14
2021/03/04 04:56:16;;;;;;;27.93;25.23;;;;;;;;;;5122000;28;20443;-14
2021/03/04 04:58:44;;;;;;;32.23;28.23;;;;;;;;;;5121629;28;20888;-15
2021/03/04 05:01:12;;;;;;;29.90;26.80;;;;;;;;;;5119725;28;20450;-13
2021/03/04 05:03:41;;;;;;;32.60;29.20;;;;;;;;;;5119754;28;20457;-14
2021/03/04 05:06:09;;;;;;;35.30;30.40;;;;;;;;;;5100417;28;20431;-14
2021/03/04 05:08:36;;;;;;;34.50;29.40;;;;;;;;;;5099900;28;20455;-15
2021/03/04 05:11:04;;;;;;;34.37;28.27;;;;;;;;;;5105922;28;20575;-14
2021/03/04 05:13:32;;;;;;;42.53;30.60;;;;;;;;;;5095506;28;20456;-14
2021/03/04 05:16:00;;;;;;;32.03;28.60;;;;;;;;;;5100014;28;20513;-14
2021/03/04 05:18:31;;;;;;;33.53;29.93;;;;;;;;;;5103505;28;20534;-13
2021/03/04 05:20:59;;;;;;;34.50;29.03;;;;;;;;;;5120787;28;20435;-14
2021/03/04 05:23:27;;;;;;;30.17;27.17;;;;;;;;;;5120607;27;20461;-14
2021/03/04 05:25:59;;;;;;;32.50;29.00;;;;;;;;;;5142290;27;20907;-15
2021/03/04 05:28:27;;;;;;;30.63;27.43;;;;;;;;;;5139431;27;20430;-13
2021/03/04 05:30:57;;;;;;;33.00;29.20;;;;;;;;;;5141224;27;20438;-14
2021/03/04 05:33:25;;;;;;;35.20;30.53;;;;;;;;;;5120783;27;20538;-14
2021/03/04 05:35:55;;;;;;;32.00;28.57;;;;;;;;;;5128480;27;21108;-12
2021/03/04 05:38:23;;;;;;;32.07;28.60;;;;;;;;;;5119332;28;20446;-13
2021/03/04 05:40:51;;;;;;;34.73;29.40;;;;;;;;;;5114891;28;20562;-13
2021/03/04 05:43:25;;;;;;;34.17;29.87;;;;;;;;;;5079534;28;20491;-14
2021/03/04 05:45:56;;;;;;;32.00;27.60;;;;;;;;;;5096544;28;20539;-15
2021/03/04 05:48:25;;;;;;;30.67;27.43;;;;;;;;;;5097147;28;20466;-15
2021/03/04 05:50:56;;;;;;;33.67;30.33;;;;;;;;;;5095800;28;20701;-14
2021/03/04 05:53:29;;;;;;;39.87;30.50;;;;;;;;;;5095727;28;20428;-13
2021/03/04 05:55:57;;;;;;;32.87;29.37;;;;;;;;;;5096879;28;20827;-14
2021/03/04 05:58:25;;;;;;;34.63;31.03;;;;;;;;;;5092566;28;20464;-13
2021/03/04 06:00:53;;;;;;;40.23;32.90;;;;;;;;;;5103623;28;20501;-14
2021/03/04 06:03:24;;;;;;;37.97;30.60;;;;;;;;;;5115864;28;20481;-13
2021/03/04 06:05:52;;;;;;;36.53;31.20;;;;;;;;;;5115856;28;20505;-13
2021/03/04 06:08:20;;;;;;;41.10;31.80;;;;;;;;;;5114567;28;20439;-15
2021/03/04 06:10:51;;;;;;;33.23;29.70;;;;;;;;;;5114288;28;21222;-13
2021/03/04 06:13:20;;;;;;;37.20;29.87;;;;;;;;;;5113943;28;20547;-12
2021/03/04 06:15:47;;;;;;;33.53;30.07;;;;;;;;;;5112606;28;20481;-13
2021/03/04 06:18:16;;;;;;;37.97;29.87;;;;;;;;;;5111640;28;20539;-14
2021/03/04 06:20:44;;;;;;;35.43;31.07;;;;;;;;;;5112577;28;20427;-15
2021/03/04 06:23:14;;;;;;;33.27;29.70;;;;;;;;;;5109867;28;20540;-13
2021/03/04 06:25:45;;;;;;;35.13;29.70;;;;;;;;;;5100825;28;20489;-13
2021/03/04 06:28:14;;;;;;;37.73;33.00;;;;;;;;;;5090202;28;20432;-15
2021/03/04 06:30:43;;;;;;;42.20;31.67;;;;;;;;;;5089615;28;20444;-15
2021/03/04 06:33:11;;;;;;;37.40;29.23;;;;;;;;;;5089933;28;20439;-14
2021/03/04 06:35:41;;;;;;;39.03;31.30;;;;;;;;;;5089418;28;20546;-14
2021/03/04 06:38:17;;;;;;;35.37;29.67;;;;;;;;;;5090168;28;20444;-14
2021/03/04 06:40:45;;;;;;;35.70;30.23;;;;;;;;;;5088198;28;20509;-14
2021/03/04 06:43:20;;;;;;;31.60;28.10;;;;;;;;;;5086075;28;20460;-14
2021/03/04 06:45:49;;;;;;;39.90;30.50;;;;;;;;;;5071885;28;20914;-14
2021/03/04 06:48:17;;;;;;;31.43;28.13;;;;;;;;;;5063878;28;20560;-17
2021/03/04 06:50:45;;;;;;;31.73;28.43;;;;;;;;;;5068847;28;20484;-14
2021/03/04 06:53:16;;;;;;;33.37;28.50;;;;;;;;;;5080732;28;20455;-14
2021/03/04 06:55:55;;;;;;;34.90;29.17;;;;;;;;;;5084940;28;20471;-14
2021/03/04 06:58:28;;;;;;;31.23;27.10;;;;;;;;;;5064605;28;20450;-13
2021/03/04 07:01:03;;;;;;;33.90;25.97;;;;;;;;;;5078853;28;20538;-13
2021/03/04 07:03:39;;;;;;;30.03;25.97;;;;;;;;;;5076806;28;20459;-14
2021/03/04 07:06:08;;;;;;;28.43;25.40;;;;;;;;;;5078354;28;20769;-13
2021/03/04 07:08:38;;;;;;;29.97;26.77;;;;;;;;;;5057831;28;20448;-12
2021/03/04 07:11:09;;;;;;;40.63;34.13;;;;;;;;;;5060165;28;20458;-14
2021/03/04 07:13:39;;;;;;;32.30;28.80;;;;;;;;;;5077453;28;20459;-13
2021/03/04 07:16:09;;;;;;;32.20;28.30;;;;;;;;;;5093608;28;20486;-15
2021/03/04 07:18:41;;;;;;;28.60;25.60;;;;;;;;;;5105182;28;20577;-17
2021/03/04 07:21:10;;;;;;;31.43;26.63;;;;;;;;;;5082264;28;20868;-13
2021/03/04 07:23:42;;;;;;;36.43;26.37;;;;;;;;;;5083329;28;20435;-14
2021/03/04 07:26:12;;;;;;;30.37;27.27;;;;;;;;;;5079552;28;20454;-11
2021/03/04 07:28:43;;;;;;;28.70;25.67;;;;;;;;;;5061964;28;20478;-13
2021/03/04 07:31:11;;;;;;;30.50;26.27;;;;;;;;;;5078782;28;20462;-13
2021/03/04 07:33:43;;;;;;;31.57;28.07;;;;;;;;;;5078958;28;20431;-14
2021/03/04 07:36:11;;;;;;;31.60;27.47;;;;;;;;;;5077790;28;20858;-13
2021/03/04 07:38:39;;;;;;;29.27;25.43;;;;;;;;;;5061333;28;20451;-14
2021/03/04 07:41:08;;;;;;;30.57;27.23;;;;;;;;;;5091366;28;20968;-14
2021/03/04 07:43:51;;;;;;;33.33;27.07;;;;;;;;;;5109390;28;20433;-13
2021/03/04 07:46:29;;;;;;;32.87;26.17;;;;;;;;;;5091735;28;20447;-13
2021/03/04 07:48:58;;;;;;;31.07;25.20;;;;;;;;;;5108676;28;20449;-14
2021/03/04 07:51:26;;;;;;;32.03;26.50;;;;;;;;;;5088997;28;21089;-13
2021/03/04 07:53:57;;;;;;;33.67;26.90;;;;;;;;;;5110961;28;20507;-12
2021/03/04 07:56:24;;;;;;;31.13;25.90;;;;;;;;;;5088642;28;20458;-12
2021/03/04 07:58:57;;;;;;;29.10;26.27;;;;;;;;;;5104797;28;20435;-14
2021/03/04 08:01:28;;;;;;;41.37;32.50;;;;;;;;;;5100814;28;20472;-12
2021/03/04 08:04:06;;;;;;;40.03;33.80;;;;;;;;;;5085941;28;20459;-14
2021/03/04 08:06:47;;;;;;;43.63;36.40;;;;;;;;;;5098335;28;20498;-12
2021/03/04 08:09:29;;;;;;;39.80;34.13;;;;;;;;;;5085230;28;20470;-14
2021/03/04 08:12:09;;;;;;;40.83;31.90;;;;;;;;;;5106556;28;20497;-10
2021/03/04 08:14:39;;;;;;;41.73;33.47;;;;;;;;;;5090010;28;20978;-12
2021/03/04 08:17:08;;;;;;;35.47;29.20;;;;;;;;;;5082790;28;20438;-11
2021/03/04 08:19:36;;;;;;;35.57;28.80;;;;;;;;;;5108053;28;20435;-13
2021/03/04 08:22:08;;;;;;;25.20;22.63;;;;;;;;;;5109934;28;20482;-12
2021/03/04 08:24:38;;;;;;;27.60;24.00;;;;;;;;;;5079443;28;20785;-14
2021/03/04 08:27:05;;;;;;;20.77;18.67;;;;;;;;;;5085424;28;20770;-13
2021/03/04 08:29:34;;;;;;;21.67;19.57;;;;;;;;;;5074139;28;20432;-13
2021/03/04 08:32:04;;;;;;;22.03;19.83;;;;;;;;;;5105940;28;20490;-13
2021/03/04 08:34:36;;;;;;;18.57;16.77;;;;;;;;;;5097240;28;20454;-11
2021/03/04 08:37:05;;;;;;;19.27;17.50;;;;;;;;;;5106495;28;20446;-12
2021/03/04 08:39:35;;;;;;;19.77;17.97;;;;;;;;;;5088029;28;20641;-13
2021/03/04 08:42:04;;;;;;;20.20;18.07;;;;;;;;;;5106179;28;20511;-14
2021/03/04 08:44:36;;;;;;;23.67;18.73;;;;;;;;;;5085605;28;20582;-12
2021/03/04 08:47:05;;;;;;;20.17;17.10;;;;;;;;;;5064215;28;20466;-12
2021/03/04 08:49:38;;;;;;;19.73;17.77;;;;;;;;;;5059454;28;20435;-13
2021/03/04 08:52:06;;;;;;;17.23;15.63;;;;;;;;;;5060374;28;20440;-14
2021/03/04 08:54:34;;;;;;;18.90;16.33;;;;;;;;;;5066750;28;20455;-13
2021/03/04 08:57:11;;;;;;;17.00;15.30;;;;;;;;;;5098833;28;20594;-14
2021/03/04 09:00:21;;;;;;;20.17;17.27;;;;;;;;;;5102386;28;20715;-13
2021/03/04 09:02:55;;;;;;;17.77;16.07;;;;;;;;;;5103131;28;20478;-12
2021/03/04 09:05:25;;;;;;;19.27;16.67;;;;;;;;;;5083234;28;20451;-12
2021/03/04 09:07:59;;;;;;;19.03;17.07;;;;;;;;;;5066264;28;20712;-13
2021/03/04 09:10:27;;;;;;;18.07;16.10;;;;;;;;;;5085008;28;20593;-12
2021/03/04 09:12:56;;;;;;;18.03;16.17;;;;;;;;;;5067780;28;20436;-14
2021/03/04 09:15:27;;;;;;;18.20;15.37;;;;;;;;;;5093331;27;20442;-12
2021/03/04 09:17:55;;;;;;;18.67;16.77;;;;;;;;;;5126628;27;20453;-12
2021/03/04 09:20:24;;;;;;;17.60;16.10;;;;;;;;;;5098699;28;20485;-12
2021/03/04 09:22:54;;;;;;;16.97;15.37;;;;;;;;;;5084626;28;20613;-14
2021/03/04 09:25:47;;;;;;;17.00;15.40;;;;;;;;;;5085114;28;20434;-14
2021/03/04 09:28:17;;;;;;;18.33;16.43;;;;;;;;;;5083275;28;20574;-14
2021/03/04 09:30:46;;;;;;;17.30;15.10;;;;;;;;;;5085367;28;20485;-12
2021/03/04 09:33:21;;;;;;;17.33;15.60;;;;;;;;;;5084625;28;20448;-13
2021/03/04 09:35:56;;;;;;;17.67;15.80;;;;;;;;;;5080881;28;20555;-13
2021/03/04 09:38:26;;;;;;;18.13;16.33;;;;;;;;;;5065519;28;20464;-13
2021/03/04 09:40:56;;;;;;;18.03;16.33;;;;;;;;;;5087999;28;20440;-13
2021/03/04 09:43:24;;;;;;;17.73;16.23;;;;;;;;;;5067664;28;20483;-13
2021/03/04 09:45:53;;;;;;;19.20;17.30;;;;;;;;;;5074527;28;20616;-12
2021/03/04 09:48:32;;;;;;;16.30;14.80;;;;;;;;;;5067905;28;20518;-12
2021/03/04 09:51:01;;;;;;;16.33;14.77;;;;;;;;;;5069609;28;20490;-13
2021/03/04 09:53:30;;;;;;;16.67;15.10;;;;;;;;;;5073435;28;20438;-14
2021/03/04 09:56:05;;;;;;;16.67;15.07;;;;;;;;;;5073757;28;20449;-12
2021/03/04 09:58:32;;;;;;;17.33;15.50;;;;;;;;;;5071171;28;20929;-14
2021/03/04 10:01:02;;;;;;;17.20;14.60;;;;;;;;;;5070004;28;20454;-13
2021/03/04 10:03:34;;;;;;;15.27;13.97;;;;;;;;;;5054243;28;20454;-13
2021/03/04 10:06:06;;;;;;;17.07;15.37;;;;;;;;;;5052697;28;20931;-12
2021/03/04 10:08:37;;;;;;;16.80;14.93;;;;;;;;;;5054139;28;20441;-13
2021/03/04 10:11:06;;;;;;;16.60;14.90;;;;;;;;;;5055354;28;20524;-11
2021/03/04 10:13:35;;;;;;;15.53;13.80;;;;;;;;;;5056409;28;20440;-13
2021/03/04 10:16:10;;;;;;;16.27;14.60;;;;;;;;;;5062019;28;20528;-14
2021/03/04 10:18:41;;;;;;;16.90;15.20;;;;;;;;;;5075177;28;20449;-13
2021/03/04 10:21:11;;;;;;;16.33;14.67;;;;;;;;;;5053990;28;20454;-14
2021/03/04 10:23:38;;;;;;;17.90;14.90;;;;;;;;;;5049309;28;20493;-12
2021/03/04 10:26:09;;;;;;;18.30;15.43;;;;;;;;;;5081769;28;20490;-12
2021/03/04 10:28:37;;;;;;;16.73;15.03;;;;;;;;;;5096606;28;20462;-11
2021/03/04 10:31:05;;;;;;;15.53;14.20;;;;;;;;;;5077379;28;20440;-12
2021/03/04 10:33:41;;;;;;;16.10;14.00;;;;;;;;;;5094614;28;20428;-13
2021/03/04 10:36:11;;;;;;;20.83;14.40;;;;;;;;;;5096207;28;20492;-13
2021/03/04 10:38:39;;;;;;;14.60;13.30;;;;;;;;;;5094692;28;20667;-13
2021/03/04 10:41:09;;;;;;;17.87;16.27;;;;;;;;;;5094308;28;20456;-12
2021/03/04 10:43:36;;;;;;;21.43;14.87;;;;;;;;;;5095483;28;20471;-12
2021/03/04 10:46:05;;;;;;;17.17;15.03;;;;;;;;;;5099021;28;20428;-11
2021/03/04 10:48:34;;;;;;;17.60;15.70;;;;;;;;;;5099956;28;20471;-13
2021/03/04 10:51:02;;;;;;;16.83;15.13;;;;;;;;;;5106397;28;20491;-12
2021/03/04 10:53:35;;;;;;;18.13;15.73;;;;;;;;;;5118347;28;20438;-12
2021/03/04 10:56:04;;;;;;;17.43;15.50;;;;;;;;;;5099617;28;20500;-12
2021/03/04 10:58:35;;;;;;;16.30;14.90;;;;;;;;;;5120513;28;20527;-10
2021/03/04 11:01:03;;;;;;;16.43;14.70;;;;;;;;;;5120342;28;20446;-11
2021/03/04 11:03:32;;;;;;;17.17;15.30;;;;;;;;;;5102231;28;20814;-12
2021/03/04 11:05:59;;;;;;;18.73;15.00;;;;;;;;;;5102482;28;20480;-13
2021/03/04 11:08:28;;;;;;;17.70;14.70;;;;;;;;;;5120276;28;20480;-12
2021/03/04 11:10:57;;;;;;;17.23;15.40;;;;;;;;;;5086153;28;20779;-15
2021/03/04 11:13:25;;;;;;;16.40;13.73;;;;;;;;;;5120383;28;20865;-11
2021/03/04 11:15:52;;;;;;;17.73;15.40;;;;;;;;;;5096214;28;20525;-14
2021/03/04 11:18:23;;;;;;;22.10;18.07;;;;;;;;;;5095517;28;20439;-12
2021/03/04 11:20:51;;;;;;;16.77;15.37;;;;;;;;;;5098606;28;20436;-15
2021/03/04 11:23:19;;;;;;;17.60;15.53;;;;;;;;;;5100275;28;20711;-13
2021/03/04 11:25:49;;;;;;;18.70;15.37;;;;;;;;;;5101164;28;20479;-13
2021/03/04 11:28:17;;;;;;;20.07;15.80;;;;;;;;;;5098966;28;20451;-13
2021/03/04 11:30:45;;;;;;;19.83;17.07;;;;;;;;;;5099836;28;20455;-15
2021/03/04 11:33:12;;;;;;;19.17;17.07;;;;;;;;;;5101475;28;20452;-14
2021/03/04 11:35:41;;;;;;;21.73;17.07;;;;;;;;;;5099707;28;20439;-13
2021/03/04 11:38:18;;;;;;;17.80;15.43;;;;;;;;;;5092396;28;20535;-14
2021/03/04 11:40:46;;;;;;;18.40;15.93;;;;;;;;;;5085198;28;20506;-15
2021/03/04 11:43:14;;;;;;;18.80;15.23;;;;;;;;;;5081669;28;20579;-14
2021/03/04 11:45:43;;;;;;;17.40;15.87;;;;;;;;;;5081081;28;20531;-13
2021/03/04 11:48:16;;;;;;;20.30;16.87;;;;;;;;;;5097417;28;20436;-14
2021/03/04 11:50:45;;;;;;;20.37;15.83;;;;;;;;;;5096673;28;20471;-14
2021/03/04 11:53:13;;;;;;;18.10;16.20;;;;;;;;;;5098904;28;20462;-13
2021/03/04 11:55:41;;;;;;;18.83;16.93;;;;;;;;;;5094042;28;20529;-12
2021/03/04 11:58:09;;;;;;;19.90;17.00;;;;;;;;;;5093526;28;20442;-12
2021/03/04 12:00:43;;;;;;;20.83;16.63;;;;;;;;;;5090160;28;20475;-12
2021/03/04 12:03:11;;;;;;;19.70;15.97;;;;;;;;;;5095323;28;20474;-12
2021/03/04 12:05:40;;;;;;;23.40;15.40;;;;;;;;;;5079381;28;20544;-11
2021/03/04 12:08:08;;;;;;;18.17;16.50;;;;;;;;;;5095317;28;20444;-13
2021/03/04 12:10:37;;;;;;;18.07;16.37;;;;;;;;;;5094561;28;20888;-13
2021/03/04 12:13:07;;;;;;;17.60;15.80;;;;;;;;;;5075450;28;20480;-13
2021/03/04 12:15:36;;;;;;;22.43;16.93;;;;;;;;;;5092109;28;21143;-13
2021/03/04 12:18:06;;;;;;;18.10;16.40;;;;;;;;;;5072921;28;20455;-14
2021/03/04 12:20:35;;;;;;;18.30;16.43;;;;;;;;;;5065125;28;20555;-14
2021/03/04 12:23:03;;;;;;;21.13;16.33;;;;;;;;;;5068475;28;21053;-13
2021/03/04 12:25:32;;;;;;;17.83;14.57;;;;;;;;;;5073150;28;20437;-14
2021/03/04 12:27:59;;;;;;;23.87;17.10;;;;;;;;;;5071599;28;20514;-13
2021/03/04 12:30:28;;;;;;;16.80;14.50;;;;;;;;;;5077255;28;20497;-13
2021/03/04 12:32:56;;;;;;;16.40;14.70;;;;;;;;;;5086611;28;20770;-14
2021/03/04 12:35:26;;;;;;;17.00;14.50;;;;;;;;;;5088747;28;20474;-12
2021/03/04 12:37:54;;;;;;;18.47;14.37;;;;;;;;;;5086374;28;21042;-14
2021/03/04 12:40:23;;;;;;;16.37;14.90;;;;;;;;;;5074435;28;20480;-14
2021/03/04 12:42:51;;;;;;;15.80;14.43;;;;;;;;;;5092598;28;20475;-13
2021/03/04 12:45:18;;;;;;;18.77;14.10;;;;;;;;;;5086658;28;20455;-14
2021/03/04 12:47:47;;;;;;;20.27;16.10;;;;;;;;;;5070372;28;20450;-16
2021/03/04 12:50:16;;;;;;;16.63;14.90;;;;;;;;;;5067710;28;20437;-14
2021/03/04 12:52:44;;;;;;;16.77;13.10;;;;;;;;;;5069477;28;20457;-14
2021/03/04 12:55:12;;;;;;;15.27;13.80;;;;;;;;;;5034514;28;20512;-14
2021/03/04 12:57:39;;;;;;;16.90;15.00;;;;;;;;;;5084274;28;20436;-14
2021/03/04 13:00:09;;;;;;;22.30;14.90;;;;;;;;;;5048195;28;20539;-13
2021/03/04 13:02:36;;;;;;;17.93;15.27;;;;;;;;;;5067252;28;20473;-13
2021/03/04 13:05:05;;;;;;;17.20;14.70;;;;;;;;;;5077682;28;20450;-14
2021/03/04 13:07:32;;;;;;;16.40;14.80;;;;;;;;;;5079841;28;20445;-13
2021/03/04 13:10:00;;;;;;;25.97;16.23;;;;;;;;;;5083349;28;20718;-14
2021/03/04 13:12:29;;;;;;;19.93;13.13;;;;;;;;;;5081091;28;20432;-14
2021/03/04 13:14:56;;;;;;;13.53;11.00;;;;;;;;;;5085913;28;20561;-13
2021/03/04 13:17:25;;;;;;;16.17;12.00;;;;;;;;;;5088257;28;20740;-13
2021/03/04 13:19:53;;;;;;;14.10;12.67;;;;;;;;;;5081196;28;20722;-13
2021/03/04 13:22:20;;;;;;;13.07;11.97;;;;;;;;;;5073149;28;20481;-12
2021/03/04 13:24:49;;;;;;;14.30;11.70;;;;;;;;;;5089962;28;20440;-13
2021/03/04 13:27:22;;;;;;;15.53;12.53;;;;;;;;;;5079653;28;20472;-13
2021/03/04 13:29:54;;;;;;;15.40;12.90;;;;;;;;;;5089551;28;20495;-14
2021/03/04 13:32:22;;;;;;;18.00;14.00;;;;;;;;;;5074468;28;20436;-13
2021/03/04 13:34:54;;;;;;;13.23;12.00;;;;;;;;;;5069455;28;20436;-13
2021/03/04 13:37:23;;;;;;;13.60;11.30;;;;;;;;;;5079364;28;20468;-14
2021/03/04 13:39:51;;;;;;;15.33;12.07;;;;;;;;;;5080112;28;20440;-14
2021/03/04 13:42:19;;;;;;;17.93;13.00;;;;;;;;;;5074955;28;20538;-14
2021/03/04 13:44:51;;;;;;;14.53;12.67;;;;;;;;;;5076851;28;20468;-13
2021/03/04 13:47:20;;;;;;;16.83;11.80;;;;;;;;;;5073227;28;20944;-13
2021/03/04 13:49:49;;;;;;;15.97;13.53;;;;;;;;;;5077679;28;20918;-14
2021/03/04 13:52:17;;;;;;;13.40;11.60;;;;;;;;;;5077650;28;20444;-14
2021/03/04 13:54:45;;;;;;;16.90;12.40;;;;;;;;;;5076711;28;20441;-13
2021/03/04 13:57:13;;;;;;;15.50;12.83;;;;;;;;;;5074108;28;20437;-13
2021/03/04 13:59:42;;;;;;;12.60;11.40;;;;;;;;;;5077767;28;20433;-15
2021/03/04 14:02:15;;;;;;;11.00;9.80;;;;;;;;;;5076685;28;20495;-12
2021/03/04 14:04:45;;;;;;;14.20;11.10;;;;;;;;;;5077152;28;20798;-14
2021/03/04 14:07:12;;;;;;;14.13;11.40;;;;;;;;;;5077871;28;20638;-14
2021/03/04 14:09:41;;;;;;;16.77;11.67;;;;;;;;;;5073889;28;20436;-12
2021/03/04 14:12:09;;;;;;;13.50;11.47;;;;;;;;;;5073110;28;20475;-13
2021/03/04 14:14:38;;;;;;;16.93;10.93;;;;;;;;;;5061473;28;21381;-12
2021/03/04 14:17:05;;;;;;;13.30;10.17;;;;;;;;;;5046810;28;20535;-12
2021/03/04 14:19:34;;;;;;;16.27;11.10;;;;;;;;;;5046602;28;20444;-11
2021/03/04 14:22:02;;;;;;;16.80;9.80;;;;;;;;;;5043891;28;20571;-12
2021/03/04 14:24:30;;;;;;;11.47;10.40;;;;;;;;;;5047156;28;21074;-13
2021/03/04 14:26:58;;;;;;;16.17;10.33;;;;;;;;;;5049960;28;20469;-11
2021/03/04 14:29:27;;;;;;;13.50;10.50;;;;;;;;;;5047177;28;20440;-13